Time;durP1;ratioP1;P1;durP2;ratioP2;P2;SDS_P1;SDS_P2;PMS_P1;PMS_P2;Temp;Humidity;BMP_temperature;BMP_pressure;BME280_temperature;BME280_humidity;BME280_pressure;Samples;Min_cycle;Max_cycle;Signal;HPM_P1;HPM_P2
2022/01/30 00:01:23;;;;;;;;;6.33;5.67;;;;;12.14;67.31;102698.88;5110385;27;45261;-78
2022/01/30 00:03:48;;;;;;;;;8.33;6.00;;;;;12.16;67.09;102705.06;5091925;27;45186;-77
2022/01/30 00:06:14;;;;;;;;;10.00;6.67;;;;;12.17;67.22;102715.03;5110511;27;45397;-77
2022/01/30 00:08:39;;;;;;;;;6.00;6.00;;;;;12.16;67.04;102714.19;5092320;27;46895;-77
2022/01/30 00:11:13;;;;;;;;;6.33;6.00;;;;;12.15;67.51;102706.94;5110475;27;45543;-78
2022/01/30 00:13:38;;;;;;;;;4.67;4.00;;;;;12.12;67.60;102704.53;5111774;27;45326;-78
2022/01/30 00:16:07;;;;;;;;;10.33;7.33;;;;;12.18;67.21;102708.50;5110443;27;45428;-77
2022/01/30 00:23:28;;;;;;;;;8.00;8.00;;;;;12.15;67.60;102709.69;5110863;27;45762;-78
2022/01/30 00:25:56;;;;;;;;;6.00;6.00;;;;;12.15;67.14;102708.84;5109967;27;45512;-78
2022/01/30 00:28:24;;;;;;;;;6.00;5.00;;;;;12.12;67.13;102699.03;5110108;27;45555;-77
2022/01/30 00:30:51;;;;;;;;;8.33;8.00;;;;;12.13;67.68;102706.28;5110220;27;45367;-79
2022/01/30 00:33:16;;;;;;;;;6.33;5.00;;;;;12.15;67.38;102698.69;5110754;27;45390;-79
2022/01/30 00:35:42;;;;;;;;;9.00;7.67;;;;;12.14;67.40;102697.00;5108615;27;45958;-79
2022/01/30 00:38:11;;;;;;;;;8.33;8.00;;;;;12.13;67.47;102703.53;5110747;27;45626;-78
2022/01/30 00:40:37;;;;;;;;;8.00;7.00;;;;;12.13;67.75;102706.28;5110302;27;45812;-78
2022/01/30 00:43:04;;;;;;;;;6.67;6.00;;;;;12.16;67.46;102696.81;5111329;27;45347;-78
2022/01/30 00:45:29;;;;;;;;;7.67;7.33;;;;;12.15;67.32;102695.94;5110358;27;45428;-76
2022/01/30 00:47:55;;;;;;;;;9.00;9.00;;;;;12.09;67.26;102682.88;5109439;27;45287;-78
2022/01/30 00:50:20;;;;;;;;;6.67;6.67;;;;;12.07;67.59;102687.72;5108785;27;44724;-76
2022/01/30 00:52:50;;;;;;;;;9.33;7.00;;;;;11.99;67.42;102676.69;5101184;27;45316;-78
2022/01/30 00:55:16;;;;;;;;;7.00;7.00;;;;;11.91;67.95;102687.66;5092656;27;45443;-77
2022/01/30 00:57:41;;;;;;;;;8.33;8.00;;;;;11.86;67.76;102690.91;5089833;28;45390;-77
2022/01/30 01:00:07;;;;;;;;;8.33;7.00;;;;;11.79;67.88;102684.38;5088892;28;45197;-78
2022/01/30 01:02:33;;;;;;;;;6.00;6.00;;;;;11.74;68.03;102678.53;5088886;28;44757;-77
2022/01/30 01:05:04;;;;;;;;;8.33;6.00;;;;;11.66;68.71;102676.59;5087941;28;45600;-78
2022/01/30 01:07:30;;;;;;;;;6.67;6.00;;;;;11.59;68.92;102676.44;5088186;28;45461;-78
2022/01/30 01:10:41;;;;;;;;;9.67;7.00;;;;;11.53;69.15;102662.53;5087835;28;45405;-76
2022/01/30 01:25:53;;;;;;;;;7.00;6.33;;;;;11.36;69.76;102667.97;5085945;28;46020;-77
2022/01/30 01:28:19;;;;;;;;;8.33;6.67;;;;;11.39;70.20;102653.91;5068995;28;47564;-77
2022/01/30 01:30:45;;;;;;;;;7.67;7.67;;;;;11.39;70.03;102653.03;5087239;28;45870;-75
2022/01/30 01:33:11;;;;;;;;;10.00;9.00;;;;;11.45;69.60;102660.59;5088260;28;44839;-76
2022/01/30 01:35:37;;;;;;;;;9.67;7.67;;;;;11.42;69.66;102648.06;5088153;28;45681;-79
2022/01/30 01:38:04;;;;;;;;;10.00;8.67;;;;;11.51;69.49;102654.41;5087796;28;45532;-77
2022/01/30 01:40:30;;;;;;;;;10.00;9.00;;;;;11.55;69.17;102654.97;5069540;28;45355;-77
2022/01/30 01:42:56;;;;;;;;;9.00;9.00;;;;;11.57;69.35;102662.00;5089320;28;45126;-77
2022/01/30 01:45:24;;;;;;;;;10.33;8.00;;;;;11.60;69.47;102660.78;5088725;28;45209;-77
2022/01/30 01:47:50;;;;;;;;;10.00;9.00;;;;;11.65;69.29;102669.41;5089521;28;45433;-79
2022/01/30 01:50:38;;;;;;;;;9.00;9.00;;;;;11.69;68.93;102667.19;5089039;28;44804;-76
2022/01/30 01:53:05;;;;;;;;;11.00;8.67;;;;;11.69;68.71;102658.94;5100375;27;44764;-76
2022/01/30 01:55:30;;;;;;;;;8.00;8.00;;;;;11.72;68.79;102667.72;5107921;27;45362;-75
2022/01/30 01:57:56;;;;;;;;;8.33;8.33;;;;;11.73;68.71;102669.41;5107948;27;45534;-75
2022/01/30 02:00:21;;;;;;;;;12.00;10.00;;;;;11.76;69.13;102666.31;5106992;27;45349;-76
2022/01/30 02:02:46;;;;;;;;;13.33;10.00;;;;;11.77;68.38;102662.56;5109142;27;45345;-77
2022/01/30 02:05:12;;;;;;;;;13.00;11.00;;;;;11.83;68.25;102674.78;5090007;27;45832;-77
2022/01/30 02:08:11;;;;;;;;;11.67;11.67;;;;;11.86;68.26;102676.31;5090436;27;46863;-76
2022/01/30 02:24:28;;;;;;;;;7.00;7.00;;;;;11.99;67.87;102649.19;5092260;28;45756;-76
2022/01/30 02:26:54;;;;;;;;;8.00;7.33;;;;;11.95;68.16;102651.44;5093144;28;45332;-76
2022/01/30 02:29:20;;;;;;;;;9.33;9.33;;;;;11.95;67.76;102653.34;5093196;28;45257;-78
2022/01/30 02:31:46;;;;;;;;;7.67;7.67;;;;;11.97;68.02;102654.00;5092077;28;45304;-77
2022/01/30 02:34:12;;;;;;;;;11.33;8.33;;;;;11.96;67.65;102655.91;5091878;28;45517;-77
2022/01/30 02:36:45;;;;;;;;;8.67;8.67;;;;;11.99;67.67;102655.56;5093227;28;45331;-77
2022/01/30 02:39:11;;;;;;;;;10.33;10.00;;;;;11.98;67.76;102659.34;5090621;28;47173;-76
2022/01/30 02:41:38;;;;;;;;;10.00;10.00;;;;;11.99;67.58;102658.31;5090500;28;45372;-77
2022/01/30 02:46:50;;;;;;;;;13.00;10.33;;;;;12.04;67.33;102660.56;5091482;28;45656;-77
2022/01/30 02:51:57;;;;;;;;;11.67;10.00;;;;;11.99;67.13;102649.19;5091319;28;44784;-77
2022/01/30 02:54:22;;;;;;;;;11.67;10.00;;;;;12.01;66.92;102664.50;5091875;28;44747;-78
2022/01/30 02:56:48;;;;;;;;;14.67;11.33;;;;;12.03;66.83;102663.47;5092474;28;45210;-78
2022/01/30 02:59:15;;;;;;;;;12.00;10.33;;;;;12.01;66.96;102653.50;5073902;28;45380;-79
2022/01/30 03:01:41;;;;;;;;;8.33;7.00;;;;;12.02;66.74;102657.13;5092485;28;45435;-77
2022/01/30 03:04:08;;;;;;;;;9.33;9.33;;;;;12.05;66.38;102665.03;5092696;28;45355;-78
2022/01/30 03:06:34;;;;;;;;;12.33;9.33;;;;;12.03;66.45;102661.56;5092162;28;45528;-77
2022/01/30 03:09:01;;;;;;;;;14.67;11.00;;;;;12.06;66.57;102674.13;5090085;28;45071;-77
2022/01/30 03:11:26;;;;;;;;;12.33;12.33;;;;;12.02;66.13;102662.63;5090900;28;45509;-77
2022/01/30 03:13:52;;;;;;;;;14.00;9.33;;;;;12.07;66.17;102662.97;5091252;28;44898;-77
2022/01/30 03:16:20;;;;;;;;;11.00;10.00;;;;;12.05;66.48;102659.53;5091353;28;45454;-77
2022/01/30 03:18:46;;;;;;;;;11.67;10.00;;;;;12.07;66.17;102660.22;5107955;27;45854;-77
2022/01/30 03:21:11;;;;;;;;;14.67;10.00;;;;;12.06;66.02;102660.38;5112565;27;44748;-76
2022/01/30 03:23:38;;;;;;;;;13.33;12.67;;;;;12.08;65.80;102669.31;5111361;27;45492;-76
2022/01/30 03:26:04;;;;;;;;;16.33;12.00;;;;;12.06;66.04;102658.47;5111417;27;45501;-76
2022/01/30 03:28:31;;;;;;;;;14.33;10.67;;;;;12.08;66.09;102669.31;5110442;27;45792;-78
2022/01/30 03:31:01;;;;;;;;;14.00;11.67;;;;;12.08;66.08;102672.06;5111258;27;44922;-78
2022/01/30 03:33:27;;;;;;;;;10.33;9.33;;;;;12.09;65.85;102666.38;5112729;27;45159;-77
2022/01/30 03:35:53;;;;;;;;;12.67;9.33;;;;;12.08;65.83;102669.31;5111380;27;45586;-78
2022/01/30 03:38:20;;;;;;;;;13.67;10.33;;;;;12.06;65.47;102672.22;5112440;27;46358;-77
2022/01/30 03:40:46;;;;;;;;;14.00;11.00;;;;;12.07;65.50;102673.09;5093324;27;45421;-77
2022/01/30 03:43:12;;;;;;;;;12.00;10.67;;;;;11.99;65.52;102669.31;5074035;27;45754;-78
2022/01/30 03:45:37;;;;;;;;;7.00;6.00;;;;;11.97;65.63;102660.34;5113307;27;45405;-76
2022/01/30 03:48:03;;;;;;;;;10.00;7.00;;;;;12.02;65.66;102665.38;5104822;27;47493;-77
2022/01/30 03:50:30;;;;;;;;;11.00;9.67;;;;;12.01;65.62;102664.50;5091191;28;45334;-74
2022/01/30 03:52:55;;;;;;;;;9.00;8.00;;;;;12.02;65.54;102665.38;5089629;28;45327;-76
2022/01/30 03:55:22;;;;;;;;;11.33;7.33;;;;;11.98;65.13;102653.84;5089646;28;45383;-75
2022/01/30 03:57:47;;;;;;;;;7.67;6.33;;;;;12.00;64.95;102661.91;5107102;27;45578;-77
2022/01/30 04:00:14;;;;;;;;;12.33;9.00;;;;;11.98;65.40;102659.34;5111776;27;45479;-78
2022/01/30 04:02:40;;;;;;;;;11.67;8.00;;;;;11.94;65.24;102657.94;5113370;27;45871;-77
2022/01/30 04:05:05;;;;;;;;;7.00;6.67;;;;;11.92;65.45;102667.41;5112222;27;45732;-76
2022/01/30 04:07:32;;;;;;;;;8.00;7.00;;;;;11.93;65.61;102670.00;5111990;27;46492;-75
2022/01/30 04:09:58;;;;;;;;;13.00;8.33;;;;;11.92;65.15;102672.91;5111665;27;45808;-76
2022/01/30 04:12:23;;;;;;;;;9.00;7.00;;;;;11.90;63.92;102678.56;5113189;27;45366;-77
2022/01/30 04:14:49;;;;;;;;;7.33;5.67;;;;;11.86;63.00;102676.31;5112692;27;45650;-77
2022/01/30 04:17:18;;;;;;;;;7.00;6.00;;;;;11.83;63.43;102678.38;5111779;27;45463;-76
2022/01/30 04:19:44;;;;;;;;;8.00;5.33;;;;;11.73;61.95;102665.81;5112007;27;44868;-76
2022/01/30 04:22:09;;;;;;;;;9.00;6.00;;;;;11.73;61.19;102679.56;5110053;27;45720;-76
2022/01/30 04:24:34;;;;;;;;;6.33;5.00;;;;;11.67;61.57;102678.34;5111164;27;44802;-77
2022/01/30 04:27:00;;;;;;;;;5.00;4.33;;;;;11.65;60.39;102685.91;5111753;27;45604;-77
2022/01/30 04:29:26;;;;;;;;;5.00;4.00;;;;;11.62;60.93;102680.75;5110734;27;45774;-75
2022/01/30 04:31:51;;;;;;;;;8.67;5.33;;;;;11.61;61.12;102688.09;5111135;27;44747;-76
2022/01/30 04:34:18;;;;;;;;;5.33;4.67;;;;;11.59;60.37;102686.56;5109554;27;45466;-75
2022/01/30 04:37:00;;;;;;;;;2.00;2.00;;;;;11.54;59.91;102689.84;5110086;27;45646;-75
2022/01/30 04:53:09;;;;;;;;;5.00;3.00;;;;;11.26;55.52;102694.72;5088773;28;45675;-75
2022/01/30 05:04:01;;;;;;;;;7.33;3.00;;;;;11.15;55.75;102700.47;5045912;28;45608;-76
2022/01/30 05:06:53;;;;;;;;;4.67;3.00;;;;;11.14;55.20;102707.88;5085545;27;46208;-75
2022/01/30 05:09:15;;;;;;;;;3.00;3.00;;;;;11.12;55.37;102705.28;5089168;28;46046;-76
2022/01/30 05:11:40;;;;;;;;;3.67;2.67;;;;;11.13;54.50;102712.47;5088462;28;45383;-75
2022/01/30 05:14:06;;;;;;;;;6.00;1.50;;;;;11.15;54.79;102717.81;5088538;28;45373;-78
2022/01/30 05:16:34;;;;;;;;;3.00;1.00;;;;;11.11;54.65;102714.53;5086917;28;45408;-77
2022/01/30 05:19:00;;;;;;;;;4.67;3.67;;;;;11.07;54.96;102721.38;5105438;27;45499;-77
2022/01/30 05:21:25;;;;;;;;;11.67;3.67;;;;;11.09;54.02;102718.47;5107243;27;45265;-76
2022/01/30 05:23:51;;;;;;;;;2.67;2.67;;;;;11.07;54.11;102709.56;5104586;27;45298;-75
2022/01/30 05:26:21;;;;;;;;;3.33;2.00;;;;;11.04;54.18;102716.22;5108830;27;45828;-76
2022/01/30 05:28:47;;;;;;;;;6.00;4.00;;;;;11.02;54.18;102718.28;5090246;27;46220;-76
2022/01/30 05:31:13;;;;;;;;;7.00;3.00;;;;;10.96;53.70;102718.94;5090374;27;44978;-76
2022/01/30 05:33:38;;;;;;;;;3.67;2.33;;;;;10.91;53.39;102726.78;5107991;27;45797;-76
2022/01/30 05:36:05;;;;;;;;;2.67;1.00;;;;;10.89;53.44;102728.84;5107708;27;45448;-75
2022/01/30 05:38:31;;;;;;;;;3.67;2.33;;;;;10.87;54.21;102734.50;5107971;27;45414;-76
2022/01/30 05:40:57;;;;;;;;;2.00;1.33;;;;;10.88;54.42;102732.59;5107038;27;45458;-75
2022/01/30 05:43:26;;;;;;;;;4.33;2.00;;;;;10.86;53.78;102723.69;5107972;27;44798;-76
2022/01/30 05:46:00;;;;;;;;;5.33;2.67;;;;;10.89;53.94;102734.34;5108559;27;45345;-76
2022/01/30 05:48:25;;;;;;;;;3.67;1.00;;;;;10.89;53.71;102748.91;5108525;27;45462;-78
2022/01/30 05:50:53;;;;;;;;;2.67;2.00;;;;;10.89;54.73;102728.84;5107231;27;45292;-77
2022/01/30 05:53:19;;;;;;;;;2.33;1.00;;;;;10.87;55.04;102736.38;5110283;27;45715;-75
2022/01/30 05:55:44;;;;;;;;;7.33;1.67;;;;;10.83;54.18;102726.75;5094331;27;45793;-78
2022/01/30 05:58:10;;;;;;;;;4.00;3.67;;;;;10.90;54.30;102736.06;5108323;27;45543;-76
2022/01/30 06:00:35;;;;;;;;;5.33;2.00;;;;;10.92;54.36;102736.75;5109462;27;45536;-77
2022/01/30 06:03:00;;;;;;;;;4.00;3.00;;;;;10.94;54.30;102742.94;5090790;27;45583;-75
2022/01/30 06:05:26;;;;;;;;;2.33;2.33;;;;;10.95;54.12;102744.66;5111896;27;45609;-77
2022/01/30 06:07:56;;;;;;;;;2.67;1.00;;;;;10.94;54.61;102745.66;5093401;27;47047;-83
2022/01/30 06:10:25;;;;;;;;;5.00;2.67;;;;;10.92;54.95;102740.34;5108444;27;45880;-77
2022/01/30 06:12:51;;;;;;;;;6.67;5.00;;;;;10.91;54.81;102743.25;5108230;27;45515;-76
2022/01/30 06:15:20;;;;;;;;;3.00;3.00;;;;;10.88;54.48;102751.81;5105689;27;45418;-78
2022/01/30 06:17:46;;;;;;;;;5.00;2.67;;;;;10.84;54.99;102748.53;5099441;27;45440;-78
2022/01/30 06:20:12;;;;;;;;;3.67;3.33;;;;;10.83;54.60;102755.03;5110880;27;45330;-79
2022/01/30 06:22:38;;;;;;;;;1.67;1.67;;;;;10.79;54.85;102756.38;5109922;27;45015;-78
2022/01/30 06:25:05;;;;;;;;;6.33;4.00;;;;;10.75;54.39;102758.59;5111385;27;45506;-77
2022/01/30 06:27:31;;;;;;;;;4.00;2.67;;;;;10.73;54.48;102768.00;5100621;27;45627;-75
2022/01/30 06:29:59;;;;;;;;;4.33;2.67;;;;;10.68;53.28;102760.25;5099334;27;45269;-77
2022/01/30 06:32:25;;;;;;;;;5.33;3.33;;;;;10.60;53.98;102769.28;5104953;27;45220;-76
2022/01/30 06:34:53;;;;;;;;;1.33;1.33;;;;;10.55;54.12;102779.00;5103255;27;45385;-79
2022/01/30 06:37:18;;;;;;;;;2.00;2.00;;;;;10.50;53.71;102767.66;5109093;27;45506;-76
2022/01/30 06:39:44;;;;;;;;;6.67;3.67;;;;;10.42;53.61;102765.72;5080760;27;45473;-79
2022/01/30 06:42:09;;;;;;;;;3.00;3.00;;;;;10.32;53.85;102759.41;5103505;27;45427;-77
2022/01/30 06:44:35;;;;;;;;;2.33;1.33;;;;;10.24;54.19;102763.81;5084272;27;45892;-76
2022/01/30 06:47:01;;;;;;;;;2.67;2.67;;;;;10.11;54.09;102763.31;5097177;27;45895;-77
2022/01/30 06:49:26;;;;;;;;;2.67;1.33;;;;;10.03;54.83;102772.34;5094947;27;45249;-77
2022/01/30 06:51:52;;;;;;;;;5.00;3.00;;;;;9.94;54.79;102764.16;5089744;27;45576;-78
2022/01/30 06:54:17;;;;;;;;;4.67;2.67;;;;;9.86;55.07;102770.44;5105866;27;45507;-80
2022/01/30 06:56:43;;;;;;;;;4.00;3.00;;;;;9.79;55.43;102780.28;5100834;27;45178;-77
2022/01/30 06:59:08;;;;;;;;;3.67;2.67;;;;;9.71;55.70;102770.09;5097767;27;44827;-77
2022/01/30 07:01:33;;;;;;;;;4.33;1.33;;;;;9.68;55.76;102778.63;5083589;28;44796;-75
2022/01/30 07:03:59;;;;;;;;;5.00;2.67;;;;;9.62;56.22;102769.13;5087179;28;45617;-77
2022/01/30 07:06:24;;;;;;;;;4.00;2.00;;;;;9.60;56.51;102771.16;5098844;27;46223;-78
2022/01/30 07:08:50;;;;;;;;;5.00;3.00;;;;;9.53;56.60;102770.03;5102700;27;45789;-77
2022/01/30 07:11:15;;;;;;;;;3.33;3.33;;;;;9.51;56.16;102777.56;5085291;27;44972;-76
2022/01/30 07:13:42;;;;;;;;;6.33;3.67;;;;;9.44;56.79;102773.69;5102979;27;45471;-78
2022/01/30 07:16:07;;;;;;;;;8.67;3.33;;;;;9.39;57.41;102776.03;5107000;27;45343;-79
2022/01/30 07:18:33;;;;;;;;;3.00;3.00;;;;;9.32;57.22;102782.09;5094729;27;45642;-77
2022/01/30 07:21:04;;;;;;;;;5.00;3.00;;;;;9.29;57.55;102787.03;5085999;28;45507;-77
2022/01/30 07:23:29;;;;;;;;;2.33;2.33;;;;;9.24;57.45;102787.47;5095231;27;44997;-75
2022/01/30 07:25:55;;;;;;;;;8.67;3.33;;;;;9.24;57.47;102792.94;5095989;27;46426;-77
2022/01/30 07:28:20;;;;;;;;;2.67;2.67;;;;;9.19;57.51;102790.66;5087716;27;45151;-78
2022/01/30 07:30:46;;;;;;;;;4.00;3.00;;;;;9.17;57.38;102792.66;5100137;27;45816;-78
2022/01/30 07:33:11;;;;;;;;;7.67;3.00;;;;;9.16;57.74;102804.66;5089986;27;45254;-76
2022/01/30 07:35:40;;;;;;;;;5.00;3.67;;;;;9.15;57.59;102805.66;5102388;27;46746;-80
2022/01/30 07:38:06;;;;;;;;;5.67;4.00;;;;;9.17;57.57;102825.50;5107078;27;45248;-79
2022/01/30 07:40:33;;;;;;;;;3.67;3.67;;;;;9.18;57.29;102810.81;5082271;27;44846;-78
2022/01/30 07:42:59;;;;;;;;;5.33;4.00;;;;;9.21;57.35;102820.63;5096868;27;45520;-78
2022/01/30 07:45:25;;;;;;;;;5.33;3.33;;;;;9.23;57.07;102828.69;5101632;27;46438;-79
2022/01/30 07:47:51;;;;;;;;;52.50;37.50;;;;;9.25;56.73;102815.69;5094258;27;45415;-78
2022/01/30 07:50:16;;;;;;;;;8.33;4.33;;;;;9.28;56.89;102821.75;5095814;27;45487;-75
2022/01/30 07:52:42;;;;;;;;;6.00;4.67;;;;;9.32;56.65;102820.44;5100981;27;45544;-78
2022/01/30 07:55:08;;;;;;;;;5.00;4.00;;;;;9.37;56.51;102825.44;5104618;27;45437;-77
2022/01/30 07:57:34;;;;;;;;;8.67;4.67;;;;;9.37;56.25;102830.94;5079527;28;45426;-76
2022/01/30 07:59:59;;;;;;;;;5.00;2.67;;;;;9.42;56.14;102838.72;5089683;27;45490;-79
2022/01/30 08:02:24;;;;;;;;;5.00;2.33;;;;;9.45;55.48;102838.41;5097404;27;45216;-77
2022/01/30 08:04:52;;;;;;;;;4.67;3.00;;;;;9.48;55.53;102838.13;5104121;27;45180;-79
2022/01/30 08:07:18;;;;;;;;;7.00;4.33;;;;;9.50;54.98;102845.16;5091657;27;45425;-79
2022/01/30 08:09:43;;;;;;;;;14.33;9.33;;;;;9.53;55.57;102846.72;5083842;28;45533;-79
2022/01/30 08:12:09;;;;;;;;;23.33;18.00;;;;;9.55;55.05;102839.25;5086046;27;45372;-79
2022/01/30 08:14:35;;;;;;;;;32.00;26.33;;;;;9.52;55.00;102832.19;5086873;28;45569;-78
2022/01/30 08:17:00;;;;;;;;;46.75;34.50;;;;;9.60;54.82;102842.38;5101214;27;45258;-80
2022/01/30 08:19:26;;;;;;;;;13.00;8.33;;;;;9.58;54.68;102828.00;5077472;28;45363;-78
2022/01/30 08:21:52;;;;;;;;;7.33;7.00;;;;;9.62;54.70;102834.00;5087341;27;45761;-77
2022/01/30 08:24:19;;;;;;;;;17.67;9.00;;;;;9.67;54.93;102843.50;5085378;27;46195;-77
2022/01/30 08:26:45;;;;;;;;;7.00;5.00;;;;;9.72;54.35;102841.16;5082551;27;45480;-75
2022/01/30 08:29:11;;;;;;;;;8.00;4.00;;;;;9.76;54.18;102830.78;5085984;27;45489;-79
2022/01/30 08:31:36;;;;;;;;;4.00;4.00;;;;;9.83;53.88;102842.84;5083008;27;45378;-79
2022/01/30 08:34:01;;;;;;;;;3.00;3.00;;;;;9.84;54.22;102827.28;5085897;27;45376;-79
2022/01/30 08:36:27;;;;;;;;;8.00;5.00;;;;;9.95;53.71;102834.44;5080661;28;44835;-79
2022/01/30 08:38:52;;;;;;;;;12.33;7.33;;;;;10.00;53.64;102845.78;5075588;27;45860;-73
2022/01/30 08:41:18;;;;;;;;;6.33;2.00;;;;;10.07;53.56;102835.94;5070386;27;45777;-75
2022/01/30 08:43:43;;;;;;;;;3.00;3.00;;;;;10.12;53.09;102832.72;5076079;28;46783;-73
2022/01/30 08:46:09;;;;;;;;;3.67;2.67;;;;;10.24;52.83;102837.00;5075213;28;45743;-74
2022/01/30 08:48:34;;;;;;;;;4.67;2.67;;;;;10.31;52.67;102834.47;5070285;28;45827;-73
2022/01/30 08:51:00;;;;;;;;;2.67;2.00;;;;;10.36;52.56;102833.03;5068616;27;44758;-75
2022/01/30 08:53:26;;;;;;;;;3.00;3.00;;;;;10.34;51.84;102817.75;5073512;28;45550;-73
2022/01/30 08:55:52;;;;;;;;;3.00;3.00;;;;;10.50;52.08;102839.84;5070782;28;45494;-71
2022/01/30 08:58:17;;;;;;;;;6.00;3.00;;;;;10.54;51.60;102840.41;5073163;27;45745;-73
2022/01/30 09:00:44;;;;;;;;;8.33;5.67;;;;;10.53;51.77;102833.19;5070372;27;45457;-72
2022/01/30 09:03:09;;;;;;;;;6.67;5.00;;;;;10.63;51.29;102838.56;5073752;27;45990;-74
2022/01/30 09:05:36;;;;;;;;;5.67;4.00;;;;;10.76;50.97;102850.91;5072485;27;45475;-73
2022/01/30 09:08:04;;;;;;;;;7.00;2.00;;;;;10.80;50.58;102847.84;5072339;28;45824;-75
2022/01/30 09:10:30;;;;;;;;;2.67;1.67;;;;;10.88;50.93;102848.78;5079617;27;46180;-73
2022/01/30 09:12:55;;;;;;;;;3.33;3.00;;;;;11.25;50.07;102844.91;5091469;27;45845;-74
2022/01/30 09:15:21;;;;;;;;;5.33;4.33;;;;;12.04;48.48;102842.06;5074961;27;45501;-74
2022/01/30 09:17:46;;;;;;;;;4.67;2.67;;;;;12.89;47.39;102840.97;5093777;27;46022;-74
2022/01/30 09:20:13;;;;;;;;;3.33;2.33;;;;;13.82;45.83;102835.94;5094026;27;45691;-73
2022/01/30 09:22:39;;;;;;;;;2.67;2.33;;;;;14.71;44.27;102838.38;5091173;27;45840;-74
2022/01/30 09:25:06;;;;;;;;;7.33;5.00;;;;;15.51;41.52;102839.69;5088952;27;45765;-72
2022/01/30 09:27:31;;;;;;;;;6.33;2.67;;;;;16.27;40.09;102839.38;5093568;27;45561;-74
2022/01/30 09:29:57;;;;;;;;;4.00;2.00;;;;;16.97;39.53;102839.69;5071734;28;45922;-74
2022/01/30 09:32:24;;;;;;;;;3.00;3.00;;;;;17.64;38.42;102843.78;5091291;28;45737;-82
2022/01/30 09:34:49;;;;;;;;;3.00;3.00;;;;;18.26;37.11;102851.34;5071040;27;45540;-73
2022/01/30 09:37:15;;;;;;;;;1.67;1.67;;;;;18.77;35.53;102845.25;5062565;28;45829;-74
2022/01/30 09:39:41;;;;;;;;;4.00;2.67;;;;;19.16;35.17;102849.13;5079831;28;45431;-75
2022/01/30 09:42:07;;;;;;;;;8.00;4.00;;;;;19.63;34.07;102845.41;5062611;28;46092;-74
2022/01/30 09:44:40;;;;;;;;;1.33;1.33;;;;;19.95;33.89;102842.75;5090803;27;45672;-75
2022/01/30 09:47:10;;;;;;;;;6.67;3.00;;;;;20.36;32.92;102842.34;5088451;27;45367;-74
2022/01/30 09:49:39;;;;;;;;;7.33;6.33;;;;;20.54;32.55;102841.59;5085043;27;45387;-75
2022/01/30 09:52:07;;;;;;;;;11.67;11.33;;;;;20.88;31.84;102849.72;5096396;27;46510;-73
2022/01/30 09:54:32;;;;;;;;;37.00;29.67;;;;;21.18;31.77;102852.69;5099006;27;45505;-73
2022/01/30 09:57:01;;;;;;;;;5.67;5.00;;;;;21.44;31.06;102842.34;5098727;27;45454;-73
2022/01/30 09:59:26;;;;;;;;;9.33;5.33;;;;;21.69;30.53;102834.78;5099860;27;45401;-75
2022/01/30 10:01:51;;;;;;;;;24.33;16.00;;;;;22.07;30.16;102851.53;5097046;27;47590;-75
2022/01/30 10:04:17;;;;;;;;;7.33;6.00;;;;;22.27;29.74;102835.31;5095065;27;45729;-76
2022/01/30 10:06:58;;;;;;;;;5.00;3.33;;;;;22.56;29.65;102849.59;5095795;27;45621;-72
2022/01/30 10:09:30;;;;;;;;;5.75;4.50;;;;;22.69;28.83;102856.91;5092268;27;45647;-75
2022/01/30 10:14:54;;;;;;;;;5.00;3.00;;;;;22.56;29.55;102850.44;5100840;27;45373;-73
2022/01/30 10:17:31;;;;;;;;;7.33;4.33;;;;;22.56;28.87;102852.38;5075556;27;45960;-75
2022/01/30 10:20:10;;;;;;;;;7.67;5.00;;;;;22.74;28.78;102852.28;5100216;27;45806;-73
2022/01/30 10:23:09;;;;;;;;;8.00;4.67;;;;;22.73;28.64;102850.59;5101852;27;45697;-76
2022/01/30 10:25:56;;;;;;;;;9.00;5.67;;;;;22.47;28.00;102851.84;5068833;27;46710;-76
2022/01/30 10:28:31;;;;;;;;;3.75;2.25;;;;;22.03;28.13;102832.41;5103723;27;46230;-78
2022/01/30 10:31:03;;;;;;;;;2.25;2.25;;;;;21.81;28.60;102840.47;5071660;27;46477;-76
2022/01/30 10:33:45;;;;;;;;;3.00;3.00;;;;;21.44;28.74;102850.72;5095681;27;45666;-77
2022/01/30 10:36:12;;;;;;;;;4.00;4.00;;;;;21.25;28.92;102839.53;5078815;27;45473;-77
2022/01/30 10:38:48;;;;;;;;;4.00;2.00;;;;;21.12;29.45;102834.06;5090132;27;45584;-74
2022/01/30 10:41:22;;;;;;;;;15.33;13.33;;;;;20.87;29.23;102840.50;5088371;27;45553;-74
2022/01/30 10:44:01;;;;;;;;;5.67;3.33;;;;;20.59;29.66;102847.31;5098613;27;46272;-74
2022/01/30 10:46:41;;;;;;;;;4.00;3.00;;;;;20.23;30.50;102837.69;5098620;27;45769;-80
2022/01/30 10:49:15;;;;;;;;;3.67;2.00;;;;;19.96;30.26;102838.91;5090787;27;47126;-81
2022/01/30 10:51:57;;;;;;;;;4.00;2.00;;;;;19.60;30.42;102837.50;5097392;27;44784;-83
2022/01/30 10:54:29;;;;;;;;;6.67;4.67;;;;;19.32;30.69;102830.28;5099477;27;46820;-79
2022/01/30 10:57:21;;;;;;;;;7.67;5.00;;;;;19.12;31.58;102841.44;5105529;27;45861;-82
2022/01/30 10:59:52;;;;;;;;;2.33;2.00;;;;;18.86;31.74;102832.88;5105444;27;45547;-80
2022/01/30 11:02:28;;;;;;;;;3.00;2.00;;;;;18.60;32.10;102836.44;5111186;27;45404;-81
2022/01/30 11:05:09;;;;;;;;;4.00;4.00;;;;;18.39;32.41;102831.94;5108398;27;45063;-81
2022/01/30 11:07:36;;;;;;;;;4.00;3.00;;;;;18.20;32.58;102836.34;5095009;27;45780;-72
2022/01/30 11:10:20;;;;;;;;;7.67;4.00;;;;;17.82;33.44;102834.06;5079312;27;45711;-73
2022/01/30 11:12:56;;;;;;;;;6.00;4.00;;;;;17.57;33.42;102829.00;5100851;27;46361;-81
2022/01/30 11:17:49;;;;;;;;;3.33;3.00;;;;;16.87;34.97;102831.72;5094363;27;44835;-81
2022/01/30 11:20:15;;;;;;;;;7.00;4.67;;;;;16.69;34.53;102821.09;5094848;27;44761;-81
2022/01/30 11:22:47;;;;;;;;;4.67;4.00;;;;;16.66;35.53;102818.72;5100202;27;45472;-82
2022/01/30 11:25:14;;;;;;;;;4.00;3.00;;;;;16.66;35.63;102810.41;5102917;27;45445;-72
2022/01/30 11:27:42;;;;;;;;;2.67;1.00;;;;;16.71;36.01;102809.81;5074955;27;45566;-74
2022/01/30 11:30:08;;;;;;;;;6.33;4.33;;;;;16.80;35.11;102799.44;5088564;27;45509;-75
2022/01/30 11:32:34;;;;;;;;;4.00;3.00;;;;;16.87;35.56;102794.81;5079489;27;46009;-73
2022/01/30 11:35:00;;;;;;;;;19.33;19.00;;;;;16.99;37.70;102801.56;5102012;27;45782;-74
2022/01/30 11:37:31;;;;;;;;;8.33;5.33;;;;;17.15;36.10;102807.84;5083693;27;45417;-74
2022/01/30 11:39:57;;;;;;;;;7.67;6.33;;;;;17.26;36.14;102796.16;5083515;28;45315;-75
2022/01/30 11:42:37;;;;;;;;;15.33;8.00;;;;;17.39;36.64;102798.19;5083323;28;44804;-78
2022/01/30 11:45:08;;;;;;;;;9.00;7.00;;;;;17.63;35.43;102792.13;5088628;27;45700;-73
2022/01/30 11:47:45;;;;;;;;;2.00;2.00;;;;;17.77;34.96;102783.84;5090003;27;45832;-72
2022/01/30 11:50:12;;;;;;;;;4.67;2.00;;;;;17.68;33.84;102782.31;5079076;27;45767;-76
2022/01/30 11:52:50;;;;;;;;;4.00;3.00;;;;;17.67;35.29;102778.69;5096192;27;45837;-71
2022/01/30 11:55:49;;;;;;;;;10.00;5.00;;;;;17.61;34.71;102780.38;5096567;27;45511;-73
2022/01/30 11:58:30;;;;;;;;;2.33;2.33;;;;;17.58;34.38;102768.84;5097483;27;45488;-72
2022/01/30 12:00:57;;;;;;;;;11.00;5.67;;;;;17.54;33.88;102773.91;5089833;27;45385;-73
2022/01/30 12:03:27;;;;;;;;;4.00;4.00;;;;;17.35;34.75;102772.78;5096921;27;45388;-73
2022/01/30 12:05:53;;;;;;;;;8.33;5.33;;;;;17.31;34.18;102757.59;5097190;27;46586;-72
2022/01/30 12:08:44;;;;;;;;;4.00;4.00;;;;;17.23;35.49;102760.53;5094776;27;45663;-74
2022/01/30 12:11:35;;;;;;;;;5.00;2.67;;;;;17.16;34.94;102760.50;5096468;27;45448;-73
2022/01/30 12:14:01;;;;;;;;;7.33;5.00;;;;;17.03;35.07;102754.88;5095509;27;45652;-75
2022/01/30 12:16:49;;;;;;;;;30.00;29.00;;;;;16.84;36.44;102748.06;5097135;27;46322;-74
2022/01/30 12:19:37;;;;;;;;;29.00;19.33;;;;;16.58;36.28;102746.81;5096256;27;45785;-73
2022/01/30 12:22:20;;;;;;;;;7.00;7.00;;;;;16.37;37.12;102745.78;5094945;27;45461;-73
2022/01/30 12:24:48;;;;;;;;;7.33;6.33;;;;;16.19;36.67;102737.09;5099127;27;45449;-74
2022/01/30 12:27:14;;;;;;;;;5.67;4.33;;;;;16.02;37.14;102734.56;5097343;27;45449;-73
2022/01/30 12:29:51;;;;;;;;;5.67;4.00;;;;;15.85;37.89;102724.78;5098128;27;45882;-74
2022/01/30 12:32:22;;;;;;;;;6.67;6.67;;;;;15.79;37.46;102731.13;5098994;27;45389;-77
2022/01/30 12:34:54;;;;;;;;;7.67;4.67;;;;;15.70;37.44;102720.16;5078633;27;46034;-75